Time;durP1;ratioP1;P1;durP2;ratioP2;P2;SDS_P1;SDS_P2;PMS_P1;PMS_P2;Temp;Humidity;BMP_temperature;BMP_pressure;BME280_temperature;BME280_humidity;BME280_pressure;Samples;Min_cycle;Max_cycle;Signal;HPM_P1;HPM_P2
2022/08/31 00:04:35;;;;;;;10.10;5.35;;;;;;;19.27;83.68;96328.56;5020135;28;20474;-71
2022/08/31 00:07:01;;;;;;;10.95;4.38;;;;;;;19.27;84.42;96327.72;5020912;28;20632;-71
2022/08/31 00:09:29;;;;;;;8.68;4.53;;;;;;;19.05;84.97;96330.09;5020954;28;20198;-71
2022/08/31 00:11:56;;;;;;;10.05;4.88;;;;;;;19.16;84.27;96325.84;5020822;28;20613;-71
2022/08/31 00:14:23;;;;;;;10.65;5.28;;;;;;;19.14;83.91;96327.94;5020012;28;20217;-71
2022/08/31 00:16:51;;;;;;;9.60;4.78;;;;;;;19.10;84.35;96327.56;5020663;28;20272;-71
2022/08/31 00:19:18;;;;;;;10.35;4.80;;;;;;;19.12;84.16;96324.69;5020533;28;20216;-71
2022/08/31 00:21:44;;;;;;;12.40;4.60;;;;;;;19.04;84.37;96319.59;5020405;28;20681;-71
2022/08/31 00:24:12;;;;;;;11.45;4.88;;;;;;;19.03;84.02;96321.47;5020057;28;20206;-71
2022/08/31 00:26:39;;;;;;;7.95;4.93;;;;;;;18.98;84.13;96331.22;5019955;28;20221;-71
2022/08/31 00:29:05;;;;;;;10.60;5.15;;;;;;;18.95;84.28;96328.97;5020515;28;20594;-71
2022/08/31 00:31:32;;;;;;;8.60;4.43;;;;;;;19.03;84.95;96318.00;5020832;28;20670;-71
2022/08/31 00:33:59;;;;;;;10.50;5.25;;;;;;;19.07;84.75;96327.22;5019335;28;20904;-70
2022/08/31 00:36:27;;;;;;;8.60;5.20;;;;;;;18.90;84.92;96325.38;5020235;28;20250;-70
2022/08/31 00:38:55;;;;;;;8.98;4.50;;;;;;;19.04;84.75;96327.63;5020811;28;20209;-70
2022/08/31 00:41:26;;;;;;;10.07;5.38;;;;;;;19.04;85.07;96328.44;5020290;28;20208;-70
2022/08/31 00:43:55;;;;;;;7.90;4.72;;;;;;;19.01;84.89;96323.53;5019211;28;20213;-70
2022/08/31 00:46:25;;;;;;;7.80;4.97;;;;;;;19.01;85.71;96326.22;5019755;28;20912;-70
2022/08/31 00:48:59;;;;;;;9.77;5.10;;;;;;;19.03;85.47;96323.34;5018517;28;20202;-70
2022/08/31 00:51:29;;;;;;;14.23;5.68;;;;;;;18.97;85.51;96327.72;5020382;28;20212;-70
2022/08/31 00:53:55;;;;;;;11.05;5.38;;;;;;;18.90;85.32;96318.16;5019295;28;21078;-70
2022/08/31 00:56:23;;;;;;;10.05;5.18;;;;;;;18.93;86.35;96328.41;5019760;28;20230;-70
2022/08/31 00:58:51;;;;;;;10.85;5.63;;;;;;;19.01;87.63;96328.09;5019341;28;20328;-70
2022/08/31 01:01:19;;;;;;;9.77;5.50;;;;;;;19.00;86.20;96321.94;5018692;28;20205;-70
2022/08/31 01:03:46;;;;;;;11.52;4.88;;;;;;;18.94;86.79;96332.72;5019449;28;20209;-70
2022/08/31 01:06:13;;;;;;;8.63;5.40;;;;;;;18.93;86.89;96325.72;5019614;28;20222;-70
2022/08/31 01:08:41;;;;;;;10.10;5.55;;;;;;;19.02;87.43;96324.38;5019517;28;20601;-70
2022/08/31 01:11:08;;;;;;;10.90;5.60;;;;;;;18.86;88.45;96329.53;5019165;28;20288;-70
2022/08/31 01:13:34;;;;;;;9.32;5.60;;;;;;;18.80;89.44;96325.91;5019164;28;20210;-70
2022/08/31 01:16:06;;;;;;;16.00;5.47;;;;;;;18.94;88.98;96327.38;5019455;28;20225;-70
2022/08/31 01:18:34;;;;;;;13.45;5.82;;;;;;;18.88;89.91;96319.44;5019541;28;20202;-70
2022/08/31 01:21:08;;;;;;;9.93;5.63;;;;;;;18.87;89.75;96315.94;5019670;28;20985;-70
2022/08/31 01:23:41;;;;;;;13.13;5.20;;;;;;;18.80;90.54;96311.72;5018717;28;20201;-70
2022/08/31 01:26:09;;;;;;;10.93;5.75;;;;;;;18.72;90.36;96323.53;5019567;28;20292;-70
2022/08/31 01:28:36;;;;;;;11.52;5.63;;;;;;;18.75;90.01;96320.44;5019530;28;20208;-70
2022/08/31 01:31:05;;;;;;;9.23;5.65;;;;;;;18.89;89.77;96334.41;5018918;28;20209;-71
2022/08/31 01:33:32;;;;;;;10.50;5.68;;;;;;;18.87;89.23;96326.63;5018498;28;20197;-71
2022/08/31 01:36:00;;;;;;;8.95;5.43;;;;;;;18.83;89.51;96330.00;5019403;28;20237;-71
2022/08/31 01:38:27;;;;;;;11.82;5.20;;;;;;;18.78;89.95;96336.00;5018971;28;20193;-71
2022/08/31 01:40:57;;;;;;;10.38;5.28;;;;;;;18.85;90.30;96323.38;5019260;28;21225;-71
2022/08/31 01:43:24;;;;;;;12.50;5.63;;;;;;;18.85;90.22;96327.88;5018008;28;20202;-71
2022/08/31 01:45:51;;;;;;;10.45;5.13;;;;;;;18.85;90.43;96328.72;5018505;28;20254;-71
2022/08/31 01:48:18;;;;;;;10.55;5.63;;;;;;;18.85;91.75;96326.06;5019719;28;20760;-71
2022/08/31 01:50:44;;;;;;;10.35;5.32;;;;;;;18.86;93.48;96324.19;5018735;28;21109;-71
2022/08/31 01:53:11;;;;;;;10.25;5.22;;;;;;;18.85;93.44;96318.03;5017519;28;20701;-71
2022/08/31 01:55:38;;;;;;;17.52;6.38;;;;;;;18.86;91.84;96319.66;5018868;28;20236;-71
2022/08/31 01:58:06;;;;;;;12.68;5.47;;;;;;;18.86;92.24;96314.31;5019133;28;20214;-71
2022/08/31 02:00:33;;;;;;;12.63;5.90;;;;;;;18.75;91.92;96323.09;5018419;28;20217;-71
2022/08/31 02:03:01;;;;;;;13.98;5.95;;;;;;;18.87;90.50;96315.16;5018196;28;20198;-71
2022/08/31 02:05:28;;;;;;;10.60;5.70;;;;;;;18.83;90.90;96312.09;5018444;28;20222;-71
2022/08/31 02:07:55;;;;;;;10.73;5.45;;;;;;;18.71;91.20;96311.25;5018516;28;20198;-71
2022/08/31 02:10:21;;;;;;;10.52;5.85;;;;;;;18.67;91.84;96306.56;5018257;28;20206;-71
2022/08/31 02:12:48;;;;;;;10.98;5.55;;;;;;;18.63;92.52;96316.88;5017860;28;20198;-71
2022/08/31 02:15:16;;;;;;;13.80;6.07;;;;;;;18.81;91.79;96321.38;5018380;28;20316;-71
2022/08/31 02:17:43;;;;;;;10.95;6.00;;;;;;;18.85;93.31;96317.22;5018357;28;20209;-71
2022/08/31 02:20:11;;;;;;;9.10;5.45;;;;;;;18.92;94.24;96315.28;5018271;28;20292;-71
2022/08/31 02:22:38;;;;;;;9.65;5.70;;;;;;;18.79;93.35;96318.09;5017319;28;20210;-71
2022/08/31 02:25:05;;;;;;;12.85;5.85;;;;;;;18.84;93.55;96318.25;5017224;28;20241;-71
2022/08/31 02:27:31;;;;;;;13.48;5.78;;;;;;;18.76;94.25;96315.91;5018351;28;20208;-71
2022/08/31 02:29:58;;;;;;;12.20;5.45;;;;;;;18.83;94.36;96316.63;5018200;28;20198;-71
2022/08/31 02:32:26;;;;;;;11.15;5.65;;;;;;;18.90;93.94;96312.81;5016931;28;20734;-71
2022/08/31 02:34:52;;;;;;;12.18;5.95;;;;;;;18.87;93.71;96315.94;5017650;28;20202;-71
2022/08/31 02:37:19;;;;;;;10.02;5.80;;;;;;;18.87;93.15;96320.47;5016462;28;20761;-71
2022/08/31 02:39:45;;;;;;;11.77;5.65;;;;;;;18.86;94.24;96318.84;5017289;28;20297;-71
2022/08/31 02:42:12;;;;;;;12.80;6.18;;;;;;;18.83;94.72;96325.44;5017582;28;20288;-71
2022/08/31 02:44:38;;;;;;;13.10;5.57;;;;;;;18.87;94.92;96315.94;5017238;28;20748;-71
2022/08/31 02:47:05;;;;;;;9.23;5.75;;;;;;;18.82;95.00;96321.16;5017420;28;20201;-71
2022/08/31 02:49:33;;;;;;;11.55;5.88;;;;;;;18.87;94.36;96323.16;5018300;28;20213;-71
2022/08/31 02:52:00;;;;;;;12.50;6.35;;;;;;;18.75;95.68;96317.75;5017837;28;20198;-70
2022/08/31 02:54:26;;;;;;;11.70;5.72;;;;;;;18.79;96.34;96316.28;5016418;28;20209;-70
2022/08/31 02:56:53;;;;;;;12.65;5.70;;;;;;;18.83;97.08;96320.09;5017261;28;20221;-70
2022/08/31 02:59:19;;;;;;;11.07;5.80;;;;;;;18.78;97.26;96316.50;5018589;28;20861;-70
2022/08/31 03:01:47;;;;;;;12.68;5.30;;;;;;;18.85;97.27;96318.03;5016939;28;20205;-71
2022/08/31 03:04:13;;;;;;;9.40;5.18;;;;;;;18.81;97.17;96322.19;5016072;28;20198;-71
2022/08/31 03:06:41;;;;;;;13.77;6.20;;;;;;;18.81;96.75;96316.84;5017914;28;20225;-71
2022/08/31 03:09:08;;;;;;;12.48;6.00;;;;;;;18.80;97.67;96319.75;5016845;28;20205;-71
2022/08/31 03:11:34;;;;;;;11.00;6.45;;;;;;;18.80;97.76;96325.91;5016767;28;20213;-71
2022/08/31 03:14:01;;;;;;;12.07;5.70;;;;;;;18.74;99.19;96315.31;5016876;28;20646;-71
2022/08/31 03:16:27;;;;;;;12.77;5.82;;;;;;;18.73;99.25;96325.16;5016935;28;20230;-71
2022/08/31 03:18:54;;;;;;;11.50;5.97;;;;;;;18.71;99.00;96318.41;5017006;28;20201;-71
2022/08/31 03:21:20;;;;;;;10.18;6.15;;;;;;;18.62;99.07;96317.94;5017547;28;20205;-70
2022/08/31 03:23:48;;;;;;;13.70;6.03;;;;;;;18.69;98.08;96313.31;5016389;28;20202;-70
2022/08/31 03:26:15;;;;;;;9.93;5.93;;;;;;;18.49;98.17;96317.25;5017043;28;20217;-70
2022/08/31 03:28:41;;;;;;;10.25;5.20;;;;;;;18.65;98.39;96314.81;5017369;28;20213;-70
2022/08/31 03:31:09;;;;;;;12.50;5.78;;;;;;;18.77;99.70;96322.88;5017122;28;20198;-71
2022/08/31 03:33:36;;;;;;;12.52;5.97;;;;;;;18.59;99.16;96320.22;5016109;28;20202;-71
2022/08/31 03:36:03;;;;;;;10.32;5.90;;;;;;;18.55;99.10;96321.72;5016725;28;20233;-71
2022/08/31 03:38:30;;;;;;;12.40;6.05;;;;;;;18.53;98.57;96319.28;5016959;28;20209;-71
2022/08/31 03:40:58;;;;;;;10.85;5.35;;;;;;;18.54;99.32;96320.88;5016770;28;20215;-71
2022/08/31 03:43:24;;;;;;;12.10;6.22;;;;;;;18.52;100.00;96322.97;5016724;28;20312;-71
2022/08/31 03:45:51;;;;;;;10.65;6.30;;;;;;;18.55;99.04;96322.50;5016541;28;20272;-71
2022/08/31 03:48:18;;;;;;;10.30;6.05;;;;;;;18.50;100.00;96333.03;5016934;28;20205;-71
2022/08/31 03:50:44;;;;;;;10.35;5.65;;;;;;;18.44;98.20;96333.97;5017019;28;20206;-71
2022/08/31 03:53:11;;;;;;;10.88;5.82;;;;;;;18.39;100.00;96335.63;5016225;28;20225;-71
2022/08/31 03:55:41;;;;;;;12.90;6.35;;;;;;;18.51;99.83;96347.22;5016444;28;20225;-71
2022/08/31 03:58:11;;;;;;;11.10;6.03;;;;;;;18.22;98.58;96361.28;5016542;28;20224;-71
2022/08/31 04:00:38;;;;;;;12.23;5.90;;;;;;;18.35;97.24;96361.97;5016780;28;20206;-71
2022/08/31 04:03:04;;;;;;;11.60;5.85;;;;;;;18.34;97.10;96357.66;5016276;28;20198;-71
2022/08/31 04:05:34;;;;;;;11.48;5.93;;;;;;;18.46;97.15;96369.22;5016171;28;20232;-71
2022/08/31 04:08:01;;;;;;;11.93;6.57;;;;;;;18.42;97.27;96375.25;5017580;28;20213;-71
2022/08/31 04:10:28;;;;;;;11.93;6.20;;;;;;;18.41;98.12;96363.72;5016786;28;20206;-71
2022/08/31 04:12:54;;;;;;;13.00;5.45;;;;;;;18.42;98.31;96369.91;5015935;28;20205;-71
2022/08/31 04:15:22;;;;;;;10.77;5.75;;;;;;;18.48;98.00;96364.50;5016224;28;20230;-70
2022/08/31 04:17:49;;;;;;;13.43;6.30;;;;;;;18.40;98.36;96364.75;5016629;28;20230;-70
2022/08/31 04:20:15;;;;;;;12.25;6.53;;;;;;;18.39;98.32;96365.81;5016514;28;20209;-70
2022/08/31 04:22:42;;;;;;;13.52;5.97;;;;;;;18.42;97.37;96364.56;5016059;28;20206;-70
2022/08/31 04:25:09;;;;;;;12.02;6.10;;;;;;;18.39;97.13;96365.00;5016483;28;20232;-70
2022/08/31 04:27:36;;;;;;;11.95;6.15;;;;;;;18.38;96.58;96363.38;5016318;28;20283;-71
2022/08/31 04:30:04;;;;;;;12.18;5.78;;;;;;;18.41;97.06;96365.59;5016423;28;20260;-71
2022/08/31 04:32:32;;;;;;;12.75;6.40;;;;;;;18.47;96.46;96357.53;5015770;28;20209;-71
2022/08/31 04:35:00;;;;;;;13.23;6.90;;;;;;;18.44;95.85;96351.81;5016129;28;20222;-71
2022/08/31 04:37:27;;;;;;;13.63;7.10;;;;;;;18.50;95.11;96350.91;5016431;28;20230;-71
2022/08/31 04:39:55;;;;;;;13.93;6.45;;;;;;;18.55;96.01;96354.53;5016853;28;20209;-71
2022/08/31 04:42:22;;;;;;;14.00;6.10;;;;;;;18.55;96.84;96351.88;5015640;28;20213;-71
2022/08/31 04:44:49;;;;;;;12.25;6.07;;;;;;;18.48;96.56;96361.00;5016097;28;20217;-71
2022/08/31 04:47:15;;;;;;;11.88;5.93;;;;;;;18.50;95.86;96367.75;5016917;28;20293;-70
2022/08/31 04:49:43;;;;;;;10.60;5.90;;;;;;;18.55;98.17;96354.53;5019724;28;20205;-70
2022/08/31 04:52:09;;;;;;;12.73;6.15;;;;;;;18.43;98.37;96356.34;5019750;28;20202;-70
2022/08/31 04:54:36;;;;;;;11.18;5.88;;;;;;;18.48;99.28;96363.66;5019518;28;20217;-70
2022/08/31 04:57:03;;;;;;;12.45;5.80;;;;;;;18.47;99.51;96365.53;5019543;28;20296;-70
2022/08/31 04:59:29;;;;;;;10.18;6.30;;;;;;;18.39;99.48;96371.16;5019767;28;20206;-70
2022/08/31 05:01:57;;;;;;;12.73;5.95;;;;;;;18.41;97.16;96376.28;5019718;28;20203;-70
2022/08/31 05:04:24;;;;;;;13.63;6.10;;;;;;;18.42;97.19;96376.03;5018565;28;20209;-70
2022/08/31 05:06:52;;;;;;;13.43;6.18;;;;;;;18.59;97.77;96377.09;5019752;28;20399;-70
2022/08/31 05:09:21;;;;;;;14.85;6.57;;;;;;;18.62;98.60;96370.47;5020095;28;20595;-70
2022/08/31 05:11:49;;;;;;;12.15;6.03;;;;;;;18.63;98.62;96367.59;5019961;28;20198;-70
2022/08/31 05:14:16;;;;;;;10.73;5.70;;;;;;;18.60;99.89;96381.38;5018655;28;20264;-70
2022/08/31 05:16:44;;;;;;;10.40;5.90;;;;;;;18.65;100.00;96381.53;5019032;28;20264;-70
2022/08/31 05:19:11;;;;;;;11.30;6.47;;;;;;;18.53;100.00;96378.00;5020304;28;20201;-70
2022/08/31 05:21:39;;;;;;;11.57;6.38;;;;;;;18.64;100.00;96390.56;5019452;28;20205;-70
2022/08/31 05:24:09;;;;;;;11.25;6.10;;;;;;;18.64;100.00;96389.78;5019241;28;20217;-70
2022/08/31 05:26:39;;;;;;;15.35;6.95;;;;;;;18.52;98.69;96389.69;5022508;28;20225;-70
2022/08/31 05:29:07;;;;;;;15.00;6.93;;;;;;;18.52;98.54;96389.69;5022657;28;20206;-70
2022/08/31 05:31:36;;;;;;;16.33;6.47;;;;;;;18.55;98.79;96385.78;5022422;28;20217;-70
2022/08/31 05:34:03;;;;;;;12.73;6.38;;;;;;;18.55;98.01;96381.25;5021490;28;20212;-70
2022/08/31 05:36:30;;;;;;;12.52;6.07;;;;;;;18.63;98.16;96383.59;5021729;28;20592;-70
2022/08/31 05:38:57;;;;;;;13.35;6.43;;;;;;;18.52;98.57;96386.19;5021623;28;20206;-70
2022/08/31 05:41:25;;;;;;;14.18;6.05;;;;;;;18.71;97.50;96394.00;5021221;28;20667;-70
2022/08/31 05:43:51;;;;;;;9.15;5.93;;;;;;;18.70;97.11;96395.03;5020979;28;20206;-70
2022/08/31 05:46:18;;;;;;;10.93;6.40;;;;;;;18.79;97.50;96399.03;5021731;28;20748;-70
2022/08/31 05:48:44;;;;;;;14.30;6.30;;;;;;;18.82;97.70;96398.59;5021845;28;20201;-70
2022/08/31 05:51:14;;;;;;;13.93;6.50;;;;;;;18.97;97.49;96401.69;5021242;28;20578;-70
2022/08/31 05:53:41;;;;;;;9.98;5.95;;;;;;;18.94;98.60;96405.63;5020538;28;21161;-70
2022/08/31 05:56:10;;;;;;;13.10;5.88;;;;;;;19.04;98.34;96397.06;5020934;28;21186;-70
2022/08/31 05:58:39;;;;;;;11.57;6.40;;;;;;;19.16;97.88;96400.66;5018052;28;20225;-70
2022/08/31 06:01:13;;;;;;;13.27;6.25;;;;;;;19.23;95.48;96401.38;5017371;28;20217;-70
2022/08/31 06:03:40;;;;;;;14.13;6.80;;;;;;;19.06;96.78;96401.19;5018161;28;20215;-70
2022/08/31 06:06:08;;;;;;;12.60;6.43;;;;;;;19.12;96.46;96404.81;5019536;28;20225;-70
2022/08/31 06:08:35;;;;;;;12.93;6.78;;;;;;;19.10;97.55;96406.91;5019463;28;20209;-70
2022/08/31 06:11:02;;;;;;;14.73;6.85;;;;;;;19.09;98.70;96403.41;5019078;28;20202;-70
2022/08/31 06:13:29;;;;;;;14.60;6.10;;;;;;;19.14;97.65;96405.41;5018730;28;20210;-70
2022/08/31 06:15:57;;;;;;;14.18;6.38;;;;;;;19.19;96.99;96401.00;5019603;28;21135;-70
2022/08/31 06:18:24;;;;;;;12.45;5.75;;;;;;;19.14;95.33;96408.91;5019530;28;20228;-70
2022/08/31 06:21:01;;;;;;;10.38;6.30;;;;;;;19.33;95.28;96407.81;5019002;28;20213;-70
2022/08/31 06:23:28;;;;;;;10.50;6.40;;;;;;;19.18;95.57;96411.91;5018772;28;20201;-70
2022/08/31 06:26:01;;;;;;;14.63;6.45;;;;;;;19.25;95.63;96412.66;5019071;28;20275;-70
2022/08/31 06:28:31;;;;;;;15.00;6.15;;;;;;;19.06;94.71;96421.75;5018778;28;20220;-70
2022/08/31 06:31:00;;;;;;;11.68;5.85;;;;;;;19.20;94.68;96423.22;5019101;28;20586;-70
2022/08/31 06:33:28;;;;;;;9.23;5.47;;;;;;;19.22;94.31;96418.44;5017910;28;20659;-70
2022/08/31 06:35:54;;;;;;;12.85;6.30;;;;;;;19.24;92.53;96425.19;5018700;28;20244;-70
2022/08/31 06:38:21;;;;;;;11.13;6.05;;;;;;;19.28;92.50;96425.56;5018777;28;20221;-70
2022/08/31 06:40:47;;;;;;;10.68;5.75;;;;;;;19.26;92.92;96428.47;5019132;28;20916;-70
2022/08/31 06:43:14;;;;;;;12.13;5.88;;;;;;;19.27;93.41;96434.63;5017928;28;20213;-70
2022/08/31 06:45:40;;;;;;;11.23;5.85;;;;;;;19.39;92.53;96433.63;5018906;28;20229;-70
2022/08/31 06:48:08;;;;;;;11.82;6.47;;;;;;;19.41;92.83;96431.56;5018636;28;20209;-71
2022/08/31 06:50:37;;;;;;;16.60;6.15;;;;;;;19.46;92.80;96430.88;5018052;28;20205;-71
2022/08/31 06:53:04;;;;;;;10.05;6.30;;;;;;;19.48;92.73;96434.13;5018154;28;20318;-71
2022/08/31 06:55:30;;;;;;;13.27;6.38;;;;;;;19.56;91.80;96441.84;5018375;28;20221;-71
2022/08/31 06:57:57;;;;;;;10.13;6.20;;;;;;;19.51;91.56;96439.03;5017278;28;20234;-71
2022/08/31 07:00:24;;;;;;;11.90;5.72;;;;;;;19.52;92.39;96444.13;5018150;28;20237;-71
2022/08/31 07:02:51;;;;;;;13.40;6.60;;;;;;;19.60;92.38;96444.66;5015921;28;20202;-71
2022/08/31 07:05:19;;;;;;;14.00;6.43;;;;;;;19.64;92.04;96448.50;5015066;28;20235;-71
2022/08/31 07:07:45;;;;;;;11.20;6.30;;;;;;;19.61;92.03;96443.59;5016137;28;20201;-71
2022/08/31 07:10:12;;;;;;;12.82;5.82;;;;;;;19.74;90.70;96440.75;5018626;28;20202;-71
2022/08/31 07:12:38;;;;;;;11.10;6.00;;;;;;;19.89;90.00;96440.31;5018023;28;20293;-71
2022/08/31 07:15:06;;;;;;;11.82;6.38;;;;;;;19.82;90.18;96439.59;5017580;28;20222;-70
2022/08/31 07:17:32;;;;;;;14.13;5.97;;;;;;;19.83;90.94;96435.84;5017923;28;20605;-70
2022/08/31 07:19:59;;;;;;;12.30;6.45;;;;;;;19.79;90.27;96442.72;5018393;28;20198;-70
2022/08/31 07:22:26;;;;;;;15.38;6.93;;;;;;;19.65;90.39;96447.47;5017034;28;20209;-70
2022/08/31 07:24:53;;;;;;;11.85;6.63;;;;;;;19.58;91.21;96443.25;5017383;28;20800;-70
2022/08/31 07:27:19;;;;;;;12.25;6.43;;;;;;;19.45;91.53;96446.09;5018540;28;20240;-70
2022/08/31 07:29:46;;;;;;;16.40;6.05;;;;;;;19.53;91.13;96444.97;5017992;28;20202;-70
2022/08/31 07:32:14;;;;;;;12.43;6.25;;;;;;;19.59;90.49;96452.91;5016790;28;20627;-70
2022/08/31 07:34:42;;;;;;;9.90;6.03;;;;;;;19.65;90.68;96452.81;5018336;28;20288;-70
2022/08/31 07:42:42;;;;;;;15.73;6.47;;;;;;;19.78;89.82;96455.28;5017760;28;20213;-70
2022/08/31 07:45:11;;;;;;;9.65;5.72;;;;;;;19.95;88.69;96458.94;5018148;28;20222;-70
2022/08/31 07:47:44;;;;;;;15.25;6.40;;;;;;;19.85;88.27;96460.53;5018003;28;20653;-70
2022/08/31 07:50:12;;;;;;;11.38;6.35;;;;;;;19.96;88.19;96460.59;5018058;28;20202;-70
2022/08/31 07:52:47;;;;;;;12.15;6.20;;;;;;;19.95;88.91;96477.69;5017471;28;20264;-70
2022/08/31 07:55:17;;;;;;;12.38;6.18;;;;;;;19.96;88.64;96473.97;5017371;28;20232;-70
2022/08/31 07:57:45;;;;;;;14.13;6.55;;;;;;;19.96;88.61;96475.81;5017880;28;20232;-70
2022/08/31 08:00:14;;;;;;;12.32;6.13;;;;;;;20.00;87.97;96475.13;5018608;28;20668;-70
2022/08/31 08:02:45;;;;;;;14.60;6.22;;;;;;;20.00;89.18;96471.66;5017834;28;20202;-70
2022/08/31 08:05:19;;;;;;;14.80;6.50;;;;;;;20.03;87.95;96476.53;5017966;28;20241;-70
2022/08/31 08:07:48;;;;;;;13.15;6.22;;;;;;;19.91;87.71;96471.16;5018185;28;20201;-70
2022/08/31 08:10:20;;;;;;;11.02;5.72;;;;;;;20.18;87.34;96469.69;5017765;28;20215;-70
2022/08/31 08:12:56;;;;;;;14.63;6.38;;;;;;;20.17;86.93;96470.75;5017766;28;20229;-70
2022/08/31 08:15:23;;;;;;;12.48;6.25;;;;;;;20.15;86.78;96480.88;5018438;28;20226;-70
2022/08/31 08:17:50;;;;;;;13.70;5.43;;;;;;;20.13;87.48;96474.94;5018279;28;20250;-70
2022/08/31 08:20:17;;;;;;;12.50;5.88;;;;;;;20.14;87.66;96492.63;5018015;28;20198;-70
2022/08/31 08:22:44;;;;;;;11.05;5.70;;;;;;;20.21;87.62;96487.97;5018191;28;20827;-70
2022/08/31 08:25:12;;;;;;;15.05;6.53;;;;;;;20.24;88.71;96485.66;5021112;28;20721;-71
2022/08/31 08:27:39;;;;;;;13.85;5.93;;;;;;;20.29;88.09;96488.47;5022560;28;20202;-71
2022/08/31 08:30:12;;;;;;;11.77;5.68;;;;;;;20.41;86.74;96493.81;5022474;28;21142;-71
2022/08/31 08:32:39;;;;;;;12.00;6.68;;;;;;;20.34;87.21;96493.94;5021080;28;20204;-71
2022/08/31 08:35:06;;;;;;;12.15;6.50;;;;;;;20.39;86.14;96498.59;5021551;28;20229;-71
2022/08/31 08:37:33;;;;;;;13.07;6.65;;;;;;;20.24;87.06;96498.22;5022086;28;20206;-71
2022/08/31 08:40:04;;;;;;;18.95;7.32;;;;;;;20.16;88.07;96501.22;5022255;28;20209;-71
2022/08/31 08:42:30;;;;;;;12.93;6.50;;;;;;;20.13;87.63;96496.34;5021306;28;20205;-71
2022/08/31 08:44:58;;;;;;;12.50;6.10;;;;;;;20.30;86.13;96498.13;5021357;28;20198;-71
2022/08/31 08:47:37;;;;;;;12.82;6.32;;;;;;;20.20;86.91;96507.78;5021257;28;20198;-71
2022/08/31 08:50:06;;;;;;;12.93;6.25;;;;;;;20.11;88.84;96506.47;5021834;28;20214;-71
2022/08/31 08:52:40;;;;;;;11.02;6.45;;;;;;;20.11;87.94;96509.16;5021976;28;20216;-71
2022/08/31 08:55:11;;;;;;;13.60;6.43;;;;;;;20.11;88.66;96519.84;5022470;28;20225;-71
2022/08/31 08:57:41;;;;;;;18.10;6.40;;;;;;;20.03;87.84;96512.13;5022011;28;20639;-71
2022/08/31 09:00:13;;;;;;;18.27;5.88;;;;;;;20.09;88.33;96515.75;5022705;28;20873;-71
2022/08/31 09:02:47;;;;;;;16.58;6.25;;;;;;;19.88;90.19;96517.06;5020401;28;20670;-71
2022/08/31 09:05:40;;;;;;;14.80;6.57;;;;;;;20.08;88.36;96514.13;5021673;28;21348;-71
2022/08/31 09:08:34;;;;;;;14.82;6.53;;;;;;;20.06;87.83;96518.88;5022374;28;20281;-71
2022/08/31 09:11:16;;;;;;;15.95;6.55;;;;;;;20.13;88.51;96519.63;5021101;28;20206;-71
2022/08/31 09:13:55;;;;;;;16.52;7.10;;;;;;;20.09;87.83;96521.13;5020553;28;20209;-71
2022/08/31 09:16:39;;;;;;;9.20;6.05;;;;;;;20.18;88.40;96517.88;5021382;28;20221;-71
2022/08/31 09:19:10;;;;;;;12.95;6.55;;;;;;;20.17;89.61;96520.78;5021627;28;20698;-71
2022/08/31 09:21:42;;;;;;;11.95;6.60;;;;;;;20.24;88.97;96527.66;5020588;28;20229;-71
2022/08/31 09:24:13;;;;;;;13.18;6.32;;;;;;;20.04;87.82;96519.13;5019958;28;20233;-71
2022/08/31 09:26:54;;;;;;;13.52;6.28;;;;;;;20.14;88.03;96523.91;5022007;28;20222;-71
2022/08/31 09:29:23;;;;;;;17.55;6.70;;;;;;;20.04;87.09;96523.66;5021798;28;20201;-71
2022/08/31 09:32:00;;;;;;;12.55;7.07;;;;;;;20.09;88.20;96521.91;5020693;28;20206;-71
2022/08/31 09:34:30;;;;;;;13.05;6.53;;;;;;;19.94;88.58;96516.16;5021357;28;20282;-71
2022/08/31 09:37:14;;;;;;;12.55;6.32;;;;;;;20.02;88.35;96525.72;5020923;28;20542;-71
2022/08/31 09:39:46;;;;;;;12.70;6.38;;;;;;;19.88;89.24;96525.09;5020614;28;20229;-71
2022/08/31 09:42:18;;;;;;;13.32;6.53;;;;;;;19.90;88.27;96525.66;5020503;28;20693;-71
2022/08/31 09:44:49;;;;;;;9.88;6.13;;;;;;;20.06;90.12;96527.75;5020454;28;20205;-71
2022/08/31 09:50:09;;;;;;;12.38;6.47;;;;;;;20.16;90.95;96524.50;5064836;27;20556;-70
2022/08/31 09:55:26;;;;;;;12.15;5.97;;;;;;;19.81;89.86;96518.19;5054860;28;20285;-70
2022/08/31 09:57:57;;;;;;;11.98;6.28;;;;;;;19.89;90.16;96524.03;5056488;28;20197;-70
2022/08/31 10:00:34;;;;;;;10.88;6.13;;;;;;;20.01;88.48;96526.78;5057607;28;20204;-70
2022/08/31 10:03:08;;;;;;;16.30;6.65;;;;;;;19.72;90.44;96528.38;5055296;28;20240;-70
2022/08/31 10:05:40;;;;;;;13.18;6.65;;;;;;;19.55;92.36;96523.88;5056710;28;20333;-70
2022/08/31 10:08:15;;;;;;;14.85;7.18;;;;;;;19.66;91.39;96531.94;5053825;28;20319;-69
2022/08/31 10:10:44;;;;;;;13.13;5.93;;;;;;;19.42;93.05;96533.94;5057081;28;20208;-70
2022/08/31 10:13:16;;;;;;;12.68;6.60;;;;;;;19.33;93.15;96532.59;5053871;28;20274;-70
2022/08/31 10:15:51;;;;;;;10.25;6.38;;;;;;;19.19;95.42;96531.91;5056006;28;20228;-70
2022/08/31 10:18:25;;;;;;;13.50;6.78;;;;;;;19.39;95.10;96526.38;5056475;28;20234;-69
2022/08/31 10:21:04;;;;;;;12.55;6.88;;;;;;;19.22;97.08;96530.66;5057598;28;20204;-69
2022/08/31 10:23:36;;;;;;;13.57;6.95;;;;;;;19.28;96.75;96527.91;5056450;28;20262;-69
2022/08/31 10:26:07;;;;;;;14.48;7.00;;;;;;;19.25;97.56;96530.25;5057628;28;20241;-69
2022/08/31 10:28:40;;;;;;;13.60;6.80;;;;;;;19.30;97.60;96541.06;5057104;28;20680;-69
2022/08/31 10:31:12;;;;;;;15.00;7.22;;;;;;;19.38;98.10;96540.75;5055511;28;20197;-69
2022/08/31 10:36:35;;;;;;;12.48;7.13;;;;;;;19.36;100.00;96541.00;5056811;28;20231;-69
2022/08/31 10:39:24;;;;;;;13.82;7.20;;;;;;;19.39;100.00;96540.53;5056378;28;21087;-69
2022/08/31 10:41:51;;;;;;;12.18;7.15;;;;;;;19.37;100.00;96541.81;5056815;28;20208;-69
2022/08/31 10:44:25;;;;;;;12.88;7.10;;;;;;;19.36;100.00;96538.31;5057499;28;20205;-69
2022/08/31 10:46:57;;;;;;;16.60;7.90;;;;;;;19.16;100.00;96542.25;5057310;28;20303;-69
2022/08/31 10:49:24;;;;;;;16.70;8.40;;;;;;;19.37;100.00;96542.59;5056749;28;20244;-69
2022/08/31 10:52:01;;;;;;;14.93;8.23;;;;;;;19.31;100.00;96534.66;5055762;28;20208;-69
2022/08/31 10:54:39;;;;;;;13.60;7.63;;;;;;;19.53;100.00;96531.31;5053982;28;20215;-69
2022/08/31 10:57:18;;;;;;;17.52;7.50;;;;;;;19.53;100.00;96535.88;5056965;28;20224;-69
2022/08/31 10:59:53;;;;;;;19.60;8.45;;;;;;;19.47;100.00;96528.72;5052331;28;20270;-69
2022/08/31 11:02:38;;;;;;;13.07;7.75;;;;;;;19.70;100.00;96525.13;5042412;28;20213;-69
2022/08/31 11:05:19;;;;;;;18.50;8.85;;;;;;;19.59;100.00;96527.75;5043671;28;20275;-69
2022/08/31 11:07:56;;;;;;;14.18;7.85;;;;;;;19.64;100.00;96528.69;5043261;28;20201;-69
2022/08/31 11:10:28;;;;;;;16.63;7.85;;;;;;;19.32;100.00;96537.13;5043665;28;20224;-69
2022/08/31 11:13:07;;;;;;;15.82;8.13;;;;;;;19.31;100.00;96535.50;5042360;28;20205;-69
2022/08/31 11:15:51;;;;;;;17.92;8.65;;;;;;;19.45;100.00;96522.78;5042884;28;20233;-69
2022/08/31 11:18:51;;;;;;;14.23;8.50;;;;;;;19.48;100.00;96539.19;5042101;28;20740;-69
2022/08/31 11:21:41;;;;;;;14.13;8.88;;;;;;;19.47;100.00;96532.22;5032133;28;20205;-69
2022/08/31 11:24:35;;;;;;;16.42;8.57;;;;;;;19.81;100.00;96526.22;5042651;28;20212;-69
2022/08/31 11:27:10;;;;;;;17.30;8.27;;;;;;;19.85;100.00;96532.75;5041608;28;20295;-69
2022/08/31 11:29:43;;;;;;;17.35;8.45;;;;;;;20.00;100.00;96535.88;5041365;28;20209;-69
2022/08/31 11:32:18;;;;;;;16.48;8.60;;;;;;;19.98;100.00;96532.59;5041802;28;20205;-69
2022/08/31 11:34:50;;;;;;;18.48;8.65;;;;;;;20.13;100.00;96533.00;5042264;28;20213;-69
2022/08/31 11:37:55;;;;;;;15.75;8.88;;;;;;;19.90;100.00;96525.66;5041550;28;20209;-69
2022/08/31 11:40:58;;;;;;;14.13;8.50;;;;;;;20.33;100.00;96527.09;5043301;28;20231;-69
2022/08/31 11:43:50;;;;;;;15.10;8.40;;;;;;;20.34;99.63;96522.53;5040703;28;20232;-69
2022/08/31 11:46:39;;;;;;;16.58;8.70;;;;;;;20.40;99.70;96527.00;5042130;28;20229;-69
2022/08/31 11:49:06;;;;;;;14.35;8.40;;;;;;;20.29;100.00;96522.44;5042054;28;20584;-69
2022/08/31 11:51:37;;;;;;;17.00;8.88;;;;;;;20.22;100.00;96522.53;5040354;28;20251;-69
2022/08/31 11:54:11;;;;;;;16.88;8.60;;;;;;;20.37;100.00;96528.25;5039895;28;20209;-69